sim
Sign-in with your pilot id or email,
or register
Callsign
Passwort

Schedule Details

Flight Number: DLH682
Departure: Munich Airport (EDDM) at 21:10
Arrival: Tel Aviv Ben Gurion International Airport (LLBG) at 00:50
Route: Lufthansa Passenger Schedule. Enter filed route here before submitting Pirep.

Weather Information
Getting current METAR information for EDDM 211250Z 03004KT 340V140 CAVOK 23/12 Q1016 NOSIG
Getting current METAR information for LLBG 211250Z 34011KT CAVOK 31/20 Q1010 NOSIG

Schedule Frequency

Route Map